createdAt,value
2023-01-17T00:01:41.048Z,63.56
2023-01-17T00:04:26.112Z,64.33
2023-01-17T00:07:10.811Z,63.34
2023-01-17T00:09:56.983Z,64.21
2023-01-17T00:12:27.364Z,64.04
2023-01-17T00:14:54.745Z,64.02
2023-01-17T00:17:24.697Z,63.10
2023-01-17T00:20:09.792Z,64.00
2023-01-17T00:22:54.924Z,64.08
2023-01-17T00:25:42.696Z,64.09
2023-01-17T00:28:09.189Z,63.64
2023-01-17T00:30:35.518Z,64.05
2023-01-17T00:33:01.813Z,63.63
2023-01-17T00:35:28.805Z,64.01
2023-01-17T00:38:05.184Z,63.40
2023-01-17T00:40:32.095Z,63.46
2023-01-17T00:43:16.913Z,63.38
2023-01-17T00:46:02.592Z,63.98
2023-01-17T00:48:47.824Z,64.16
2023-01-17T00:51:32.466Z,63.61
2023-01-17T00:54:18.977Z,63.60
2023-01-17T00:57:03.919Z,64.30
2023-01-17T00:59:48.526Z,63.64
2023-01-17T01:02:33.311Z,64.26
2023-01-17T01:05:18.416Z,63.60
2023-01-17T01:08:03.138Z,63.78
2023-01-17T01:10:47.765Z,63.43
2023-01-17T01:13:33.215Z,63.95
2023-01-17T01:16:19.021Z,64.11
2023-01-17T01:19:04.027Z,63.62
2023-01-17T01:21:49.280Z,64.01
2023-01-17T01:24:34.546Z,63.68
2023-01-17T01:27:19.886Z,63.95
2023-01-17T01:30:04.599Z,63.97
2023-01-17T01:32:52.936Z,64.07
2023-01-17T01:35:19.265Z,64.53
2023-01-17T01:37:45.646Z,64.17
2023-01-17T01:40:12.411Z,63.96
2023-01-17T01:42:47.712Z,64.20
2023-01-17T01:45:18.171Z,63.70
2023-01-17T01:47:45.071Z,63.86
2023-01-17T01:50:12.351Z,63.75
2023-01-17T01:52:41.365Z,64.54
2023-01-17T01:55:11.266Z,64.12
2023-01-17T01:57:39.584Z,64.36
2023-01-17T02:00:11.569Z,64.09
2023-01-17T02:02:38.064Z,64.05
2023-01-17T02:05:04.984Z,64.00
2023-01-17T02:07:33.711Z,64.13
2023-01-17T02:10:00.495Z,64.08
2023-01-17T02:12:27.384Z,64.26
2023-01-17T02:14:53.691Z,64.30
2023-01-17T02:17:35.114Z,63.78
2023-01-17T02:20:04.384Z,64.58
2023-01-17T02:22:49.510Z,64.26
2023-01-17T02:25:15.782Z,64.46
2023-01-17T02:27:57.292Z,64.32
2023-01-17T02:30:30.901Z,64.40
2023-01-17T02:32:57.232Z,63.69
2023-01-17T02:35:23.491Z,63.63
2023-01-17T02:38:01.679Z,64.74
2023-01-17T02:40:28.253Z,64.17
2023-01-17T02:42:58.654Z,64.40
2023-01-17T02:45:25.036Z,64.26
2023-01-17T02:47:51.747Z,64.02
2023-01-17T02:50:20.510Z,63.74
2023-01-17T02:53:04.969Z,63.84
2023-01-17T02:55:34.426Z,64.21
2023-01-17T02:58:00.682Z,64.15
2023-01-17T03:00:31.901Z,63.48
2023-01-17T03:03:02.929Z,64.57
2023-01-17T03:05:36.902Z,63.73
2023-01-17T03:08:03.767Z,64.27
2023-01-17T03:10:32.607Z,64.17
2023-01-17T03:13:00.109Z,64.57
2023-01-17T03:15:26.982Z,64.83
2023-01-17T03:17:55.088Z,64.74
2023-01-17T03:20:22.673Z,65.27
2023-01-17T03:22:49.091Z,64.11
2023-01-17T03:25:16.289Z,65.20
2023-01-17T03:27:42.592Z,65.21
2023-01-17T03:30:09.149Z,64.96
2023-01-17T03:32:35.591Z,64.97
2023-01-17T03:35:01.905Z,65.67
2023-01-17T03:37:28.199Z,65.18
2023-01-17T03:39:54.935Z,65.37
2023-01-17T03:42:21.209Z,66.09
2023-01-17T03:44:47.672Z,65.45
2023-01-17T03:47:14.064Z,65.60
2023-01-17T03:49:40.478Z,65.93
2023-01-17T03:52:07.499Z,65.58
2023-01-17T03:54:33.901Z,65.57
2023-01-17T03:57:00.247Z,65.59
2023-01-17T03:59:26.575Z,66.16
2023-01-17T04:01:52.942Z,66.16
2023-01-17T04:04:19.302Z,65.78
2023-01-17T04:06:45.801Z,65.98
2023-01-17T04:09:12.147Z,66.75
2023-01-17T04:11:38.424Z,66.07
2023-01-17T04:14:04.811Z,66.76
2023-01-17T04:16:31.927Z,66.67
2023-01-17T04:18:58.488Z,67.04
2023-01-17T04:21:24.810Z,67.19
2023-01-17T04:23:51.122Z,67.17
2023-01-17T04:26:17.436Z,67.81
2023-01-17T04:28:43.739Z,67.86
2023-01-17T04:31:14.010Z,67.75
2023-01-17T04:33:40.345Z,69.31
2023-01-17T04:36:06.712Z,69.34
2023-01-17T04:38:33.043Z,69.92
2023-01-17T04:40:59.345Z,70.83
2023-01-17T04:43:25.652Z,71.67
2023-01-17T04:45:58.528Z,71.24
2023-01-17T04:48:25.002Z,71.71
2023-01-17T04:50:51.334Z,71.39
2023-01-17T04:53:17.679Z,71.88
2023-01-17T04:55:46.997Z,71.48
2023-01-17T04:58:13.299Z,71.74
2023-01-17T05:00:39.629Z,71.86
2023-01-17T05:03:05.970Z,72.23
2023-01-17T05:05:32.329Z,72.20
2023-01-17T05:07:58.802Z,71.40
2023-01-17T05:10:25.437Z,71.64
2023-01-17T05:12:55.650Z,71.64
2023-01-17T05:15:22.312Z,71.70
2023-01-17T05:17:48.668Z,71.42
2023-01-17T05:20:14.995Z,71.35
2023-01-17T05:22:41.287Z,71.56
2023-01-17T05:25:07.762Z,71.31
2023-01-17T05:27:34.124Z,71.75
2023-01-17T05:30:00.422Z,70.75
2023-01-17T05:32:26.720Z,71.99
2023-01-17T05:34:52.997Z,71.70
2023-01-17T05:37:19.307Z,71.00
2023-01-17T05:39:45.595Z,71.53
2023-01-17T05:42:11.890Z,71.56
2023-01-17T05:44:38.667Z,70.97
2023-01-17T05:47:04.964Z,71.15
2023-01-17T05:49:31.281Z,71.74
2023-01-17T05:51:57.953Z,71.85
2023-01-17T05:54:24.254Z,71.78
2023-01-17T05:56:50.556Z,71.53
2023-01-17T05:59:25.623Z,71.55
2023-01-17T06:02:02.411Z,70.84
2023-01-17T06:04:28.859Z,71.38
2023-01-17T06:06:55.242Z,70.76
2023-01-17T06:09:21.561Z,70.58
2023-01-17T06:11:47.970Z,70.27
2023-01-17T06:14:14.273Z,70.75
2023-01-17T06:16:40.566Z,71.74
2023-01-17T06:19:06.867Z,70.45
2023-01-17T06:21:33.180Z,70.73
2023-01-17T06:23:59.447Z,70.95
2023-01-17T06:26:25.792Z,71.02
2023-01-17T06:28:52.102Z,71.60
2023-01-17T06:31:18.453Z,72.10
2023-01-17T06:33:44.838Z,71.59
2023-01-17T06:36:11.258Z,71.93
2023-01-17T06:38:37.536Z,71.33
2023-01-17T06:41:04.413Z,71.59
2023-01-17T06:43:33.517Z,71.03
2023-01-17T06:46:00.703Z,71.24
2023-01-17T06:48:27.176Z,71.45
2023-01-17T06:50:53.558Z,70.05
2023-01-17T06:53:19.890Z,70.63
2023-01-17T06:55:46.247Z,70.77
2023-01-17T06:58:12.579Z,70.84
2023-01-17T07:00:40.765Z,71.34
2023-01-17T07:03:11.832Z,72.83
2023-01-17T07:05:38.136Z,72.21
2023-01-17T07:08:04.655Z,72.26
2023-01-17T07:10:31.018Z,71.39
2023-01-17T07:13:00.643Z,71.81
2023-01-17T07:15:27.017Z,72.05
2023-01-17T07:17:53.384Z,72.16
2023-01-17T07:20:19.713Z,72.23
2023-01-17T07:22:46.117Z,71.86
2023-01-17T07:25:12.526Z,73.09
2023-01-17T07:27:38.805Z,72.33
2023-01-17T07:30:05.375Z,72.72
2023-01-17T07:32:31.713Z,72.48
2023-01-17T07:34:58.161Z,72.10
2023-01-17T07:37:26.252Z,72.35
2023-01-17T07:39:52.903Z,71.95
2023-01-17T07:42:19.185Z,72.73
2023-01-17T07:44:45.523Z,71.88
2023-01-17T07:47:12.082Z,72.64
2023-01-17T07:49:38.532Z,71.27
2023-01-17T07:52:08.065Z,72.53
2023-01-17T07:54:34.684Z,71.92
2023-01-17T07:57:01.275Z,71.32
2023-01-17T07:59:27.619Z,71.55
2023-01-17T08:01:54.049Z,71.31
2023-01-17T08:04:20.424Z,72.57
2023-01-17T08:06:48.627Z,71.79
2023-01-17T08:09:15.021Z,71.64
2023-01-17T08:11:41.313Z,70.93
2023-01-17T08:14:07.644Z,70.71
2023-01-17T08:16:34.113Z,70.55
2023-01-17T08:19:00.496Z,71.05
2023-01-17T08:21:29.540Z,70.64
2023-01-17T08:23:56.307Z,71.19
2023-01-17T08:26:22.798Z,71.11
2023-01-17T08:28:49.899Z,70.96
2023-01-17T08:31:17.564Z,71.66
2023-01-17T08:33:44.102Z,71.97
2023-01-17T08:36:10.520Z,72.63
2023-01-17T08:38:36.831Z,73.25
2023-01-17T08:41:03.152Z,73.28
2023-01-17T08:43:29.542Z,72.88
2023-01-17T08:45:56.161Z,73.44
2023-01-17T08:48:25.330Z,73.02
2023-01-17T08:50:51.648Z,73.80
2023-01-17T08:53:23.138Z,74.19
2023-01-17T08:55:56.745Z,74.01
2023-01-17T08:58:23.275Z,75.19
2023-01-17T09:00:49.889Z,74.34
2023-01-17T09:03:16.291Z,75.33
2023-01-17T09:05:42.745Z,74.52
2023-01-17T09:08:09.109Z,74.71
2023-01-17T09:10:35.501Z,75.43
2023-01-17T09:13:01.892Z,74.20
2023-01-17T09:15:28.236Z,74.18
2023-01-17T09:17:57.625Z,75.20
2023-01-17T09:20:24.865Z,74.27
2023-01-17T09:22:51.428Z,74.52
2023-01-17T09:25:17.745Z,73.05
2023-01-17T09:27:46.992Z,72.21
2023-01-17T09:30:13.661Z,71.75
2023-01-17T09:32:39.999Z,72.54
2023-01-17T09:35:07.905Z,71.21
2023-01-17T09:37:34.193Z,71.64
2023-01-17T09:40:00.563Z,70.28
2023-01-17T09:42:35.656Z,71.42
2023-01-17T09:45:02.412Z,71.05
2023-01-17T09:47:39.145Z,71.13
2023-01-17T09:50:08.674Z,71.67
2023-01-17T09:52:35.021Z,72.06
2023-01-17T09:55:02.617Z,72.08
2023-01-17T09:57:31.859Z,73.14
2023-01-17T10:00:17.091Z,72.05
2023-01-17T10:02:54.519Z,72.55
2023-01-17T10:05:36.523Z,71.76
2023-01-17T10:08:25.713Z,71.28
2023-01-17T10:11:07.694Z,71.91
2023-01-17T10:13:42.854Z,71.76
2023-01-17T10:16:14.988Z,71.73
2023-01-17T10:18:47.336Z,71.83
2023-01-17T10:21:33.041Z,72.48
2023-01-17T10:24:03.591Z,71.66
2023-01-17T10:26:30.039Z,71.25
2023-01-17T10:29:00.696Z,69.99
2023-01-17T10:31:28.377Z,70.28
2023-01-17T10:33:56.090Z,71.00
2023-01-17T10:36:35.821Z,70.60
2023-01-17T10:39:12.064Z,71.06
2023-01-17T10:41:41.149Z,71.89
2023-01-17T10:44:18.106Z,71.24
2023-01-17T10:46:52.536Z,71.08
2023-01-17T10:49:20.729Z,70.74
2023-01-17T10:52:06.061Z,71.03
2023-01-17T10:54:40.711Z,71.69
2023-01-17T10:57:13.669Z,71.90
2023-01-17T10:59:40.000Z,72.22
2023-01-17T11:02:15.086Z,71.57
2023-01-17T11:04:42.293Z,71.42
2023-01-17T11:07:14.541Z,71.38
2023-01-17T11:09:45.012Z,72.46
2023-01-17T11:12:34.407Z,71.98
2023-01-17T11:15:00.846Z,71.91
2023-01-17T11:17:27.850Z,71.82
2023-01-17T11:19:54.503Z,71.20
2023-01-17T11:22:21.114Z,71.32
2023-01-17T11:24:49.455Z,71.50
2023-01-17T11:27:26.852Z,71.67
2023-01-17T11:30:05.569Z,71.35
2023-01-17T11:32:32.950Z,72.98
2023-01-17T11:35:07.686Z,72.36
2023-01-17T11:37:35.111Z,73.16
2023-01-17T11:40:20.295Z,71.91
2023-01-17T11:42:46.689Z,72.72
2023-01-17T11:45:22.634Z,72.08
2023-01-17T11:47:48.988Z,73.18
2023-01-17T11:50:25.583Z,72.61
2023-01-17T11:52:51.988Z,71.79
2023-01-17T11:55:22.876Z,71.99
2023-01-17T11:57:50.380Z,72.30
2023-01-17T12:00:23.195Z,72.52
2023-01-17T12:03:11.030Z,73.47
2023-01-17T12:05:37.333Z,72.40
2023-01-17T12:08:14.284Z,71.79
2023-01-17T12:10:40.613Z,73.00
2023-01-17T12:13:25.765Z,72.96
2023-01-17T12:16:32.584Z,72.11
2023-01-17T12:18:58.876Z,72.86
2023-01-17T12:21:35.978Z,72.30
2023-01-17T12:24:21.027Z,71.83
2023-01-17T12:26:56.924Z,71.66
2023-01-17T12:29:23.251Z,72.41
2023-01-17T12:31:49.516Z,72.35
2023-01-17T12:34:28.312Z,72.25
2023-01-17T12:37:01.986Z,71.32
2023-01-17T12:39:35.963Z,71.86
2023-01-17T12:42:13.389Z,71.41
2023-01-17T12:44:45.559Z,69.86
2023-01-17T12:47:14.378Z,70.58
2023-01-17T12:49:56.370Z,69.07
2023-01-17T12:52:25.809Z,69.56
2023-01-17T12:54:57.036Z,69.61
2023-01-17T12:57:26.100Z,68.59
2023-01-17T12:59:58.252Z,68.78
2023-01-17T13:02:47.553Z,67.63
2023-01-17T13:05:17.679Z,67.09
2023-01-17T13:07:53.192Z,66.39
2023-01-17T13:10:32.067Z,66.95
2023-01-17T13:13:12.171Z,66.14
2023-01-17T13:15:40.461Z,65.68
2023-01-17T13:18:10.690Z,65.66
2023-01-17T13:20:57.913Z,66.14
2023-01-17T13:23:36.157Z,66.82
2023-01-17T13:26:03.318Z,66.07
2023-01-17T13:28:29.650Z,66.53
2023-01-17T13:31:05.274Z,67.07
2023-01-17T13:33:31.598Z,66.12
2023-01-17T13:35:59.674Z,66.94
2023-01-17T13:38:36.499Z,67.05
2023-01-17T13:41:21.496Z,65.64
2023-01-17T13:44:06.624Z,65.42
2023-01-17T13:46:52.796Z,65.48
2023-01-17T13:49:33.294Z,65.31
2023-01-17T13:52:05.045Z,64.11
2023-01-17T13:54:32.593Z,63.63
2023-01-17T13:57:22.065Z,63.69
2023-01-17T13:59:48.592Z,63.42
2023-01-17T14:02:33.265Z,64.14
2023-01-17T14:05:05.718Z,63.93
2023-01-17T14:07:33.591Z,64.16
2023-01-17T14:09:59.905Z,63.03
2023-01-17T14:12:31.350Z,62.84
2023-01-17T14:15:00.663Z,63.01
2023-01-17T14:17:34.053Z,63.67
2023-01-17T14:20:06.417Z,63.48
2023-01-17T14:22:37.736Z,63.22
2023-01-17T14:25:14.939Z,64.72
2023-01-17T14:27:59.920Z,63.78
2023-01-17T14:30:26.283Z,63.57
2023-01-17T14:32:58.736Z,64.79
2023-01-17T14:35:28.428Z,64.60
2023-01-17T14:37:57.510Z,63.46
2023-01-17T14:40:30.552Z,64.39
2023-01-17T14:43:02.889Z,64.80
2023-01-17T14:45:30.748Z,63.20
2023-01-17T14:48:01.595Z,64.79
2023-01-17T14:50:29.736Z,63.61
2023-01-17T14:53:11.197Z,63.80
2023-01-17T14:55:38.581Z,64.84
2023-01-17T14:58:04.897Z,64.20
2023-01-17T15:00:33.572Z,64.56
2023-01-17T15:03:00.605Z,63.13
2023-01-17T15:05:28.744Z,63.19
2023-01-17T15:07:56.440Z,63.64
2023-01-17T15:10:28.165Z,63.44
2023-01-17T15:12:56.695Z,64.08
2023-01-17T15:15:27.410Z,63.12
2023-01-17T15:18:15.220Z,63.42
2023-01-17T15:20:43.543Z,65.17
2023-01-17T15:23:13.363Z,64.68
2023-01-17T15:25:39.741Z,64.62
2023-01-17T15:28:09.458Z,64.11
2023-01-17T15:30:35.903Z,64.98
2023-01-17T15:33:02.690Z,65.24
2023-01-17T15:35:29.622Z,64.89
2023-01-17T15:37:58.178Z,66.05
2023-01-17T15:40:25.347Z,65.91
2023-01-17T15:42:54.057Z,64.03
2023-01-17T15:45:22.986Z,64.69
2023-01-17T15:47:49.441Z,64.05
2023-01-17T15:50:28.572Z,65.43
2023-01-17T15:52:56.576Z,64.65
2023-01-17T15:55:36.388Z,64.83
2023-01-17T15:58:03.144Z,64.51
2023-01-17T16:00:38.287Z,65.92
2023-01-17T16:03:34.173Z,66.06
2023-01-17T16:06:01.099Z,65.91
2023-01-17T16:08:31.949Z,65.82
2023-01-17T16:11:02.632Z,66.37
2023-01-17T16:13:33.829Z,67.23
2023-01-17T16:16:13.240Z,66.61
2023-01-17T16:18:40.657Z,65.89
2023-01-17T16:21:17.111Z,65.59
2023-01-17T16:23:43.672Z,66.06
2023-01-17T16:26:10.916Z,66.33
2023-01-17T16:28:38.382Z,66.27
2023-01-17T16:31:05.006Z,66.46
2023-01-17T16:33:31.449Z,67.67
2023-01-17T16:35:57.864Z,66.67
2023-01-17T16:38:24.272Z,67.39
2023-01-17T16:40:50.680Z,67.24
2023-01-17T16:43:19.007Z,66.96
2023-01-17T16:45:46.472Z,66.53
2023-01-17T16:48:12.903Z,66.75
2023-01-17T16:50:47.945Z,65.84
2023-01-17T16:53:14.705Z,66.90
2023-01-17T16:55:41.971Z,66.62
2023-01-17T16:58:08.279Z,66.64
2023-01-17T17:00:34.741Z,67.62
2023-01-17T17:03:01.172Z,66.77
2023-01-17T17:05:27.695Z,67.77
2023-01-17T17:07:54.294Z,67.84
2023-01-17T17:10:21.858Z,67.80
2023-01-17T17:12:48.181Z,67.39
2023-01-17T17:15:15.795Z,67.84
2023-01-17T17:17:43.007Z,68.14
2023-01-17T17:20:14.058Z,67.79
2023-01-17T17:22:44.286Z,67.52
2023-01-17T17:25:11.925Z,67.77
2023-01-17T17:27:38.346Z,65.71
2023-01-17T17:30:04.889Z,65.91
2023-01-17T17:32:32.305Z,65.78
2023-01-17T17:34:58.779Z,65.27
2023-01-17T17:37:28.671Z,66.25
2023-01-17T17:39:55.783Z,65.38
2023-01-17T17:42:22.277Z,65.53
2023-01-17T17:44:48.594Z,65.39
2023-01-17T17:47:16.226Z,65.41
2023-01-17T17:49:43.282Z,66.71
2023-01-17T17:52:09.641Z,66.21
2023-01-17T17:54:36.117Z,64.00
2023-01-17T17:57:02.682Z,65.33
2023-01-17T17:59:29.771Z,65.71
2023-01-17T18:01:56.248Z,65.56
2023-01-17T18:04:22.642Z,66.64
2023-01-17T18:06:49.033Z,67.25
2023-01-17T18:09:15.531Z,66.29
2023-01-17T18:11:42.645Z,67.19
2023-01-17T18:14:10.870Z,67.35
2023-01-17T18:16:41.551Z,66.89
2023-01-17T18:19:11.375Z,67.24
2023-01-17T18:21:38.593Z,68.00
2023-01-17T18:24:07.075Z,66.39
2023-01-17T18:26:41.615Z,66.61
2023-01-17T18:29:09.626Z,66.52
2023-01-17T18:31:36.006Z,65.96
2023-01-17T18:34:07.840Z,65.93
2023-01-17T18:36:34.834Z,65.62
2023-01-17T18:39:01.715Z,67.16
2023-01-17T18:41:29.611Z,66.40
2023-01-17T18:43:59.067Z,65.15
2023-01-17T18:46:26.144Z,65.72
2023-01-17T18:48:54.820Z,65.56
2023-01-17T18:51:21.798Z,67.22
2023-01-17T18:53:48.424Z,66.77
2023-01-17T18:56:15.899Z,67.30
2023-01-17T18:58:43.307Z,66.75
2023-01-17T19:01:09.879Z,66.77
2023-01-17T19:03:36.890Z,67.01
2023-01-17T19:06:06.539Z,65.85
2023-01-17T19:08:36.380Z,66.33
2023-01-17T19:11:04.338Z,67.31
2023-01-17T19:13:32.550Z,65.83
2023-01-17T19:15:59.464Z,66.77
2023-01-17T19:18:25.949Z,67.11
2023-01-17T19:20:52.488Z,67.13
2023-01-17T19:23:22.099Z,68.28
2023-01-17T19:25:57.315Z,65.97
2023-01-17T19:28:26.699Z,67.92
2023-01-17T19:31:06.288Z,67.00
2023-01-17T19:33:33.738Z,66.18
2023-01-17T19:36:01.017Z,66.63
2023-01-17T19:38:30.055Z,64.94
2023-01-17T19:40:56.328Z,66.12
2023-01-17T19:43:22.887Z,65.92
2023-01-17T19:45:58.772Z,67.08
2023-01-17T19:48:25.607Z,67.65
2023-01-17T19:50:52.282Z,67.07
2023-01-17T19:53:18.646Z,67.68
2023-01-17T19:55:45.277Z,69.05
2023-01-17T19:58:13.164Z,67.83
2023-01-17T20:00:46.515Z,66.77
2023-01-17T20:03:13.193Z,66.68
2023-01-17T20:05:39.666Z,67.97
2023-01-17T20:08:06.266Z,66.60
2023-01-17T20:10:32.620Z,68.01
2023-01-17T20:12:59.168Z,67.55
2023-01-17T20:15:26.425Z,67.80
2023-01-17T20:17:53.145Z,67.84
2023-01-17T20:20:19.607Z,67.68
2023-01-17T20:22:45.988Z,67.22
2023-01-17T20:25:12.646Z,68.19
2023-01-17T20:27:40.458Z,67.12
2023-01-17T20:30:19.222Z,68.25
2023-01-17T20:32:46.670Z,68.10
2023-01-17T20:35:13.384Z,67.57
2023-01-17T20:37:39.662Z,67.35
2023-01-17T20:40:07.244Z,69.00
2023-01-17T20:42:36.028Z,67.80
2023-01-17T20:45:03.091Z,68.12
2023-01-17T20:47:29.681Z,68.31
2023-01-17T20:49:56.035Z,68.92
2023-01-17T20:52:22.330Z,69.07
2023-01-17T20:54:49.915Z,67.88
2023-01-17T20:57:16.201Z,68.91
2023-01-17T20:59:42.502Z,68.63
2023-01-17T21:02:10.636Z,67.47
2023-01-17T21:04:37.059Z,68.44
2023-01-17T21:07:03.929Z,68.49
2023-01-17T21:09:30.331Z,67.42
2023-01-17T21:12:01.048Z,68.38
2023-01-17T21:14:28.366Z,67.82
2023-01-17T21:16:54.916Z,68.86
2023-01-17T21:19:21.522Z,68.83
2023-01-17T21:21:48.739Z,68.82
2023-01-17T21:24:18.504Z,67.88
2023-01-17T21:26:45.821Z,68.52
2023-01-17T21:29:13.144Z,67.67
2023-01-17T21:31:40.868Z,68.26
2023-01-17T21:34:08.202Z,69.51
2023-01-17T21:36:37.194Z,68.05
2023-01-17T21:39:04.977Z,67.56
2023-01-17T21:41:35.589Z,69.22
2023-01-17T21:44:03.313Z,67.91
2023-01-17T21:46:30.218Z,68.29
2023-01-17T21:48:57.510Z,68.01
2023-01-17T21:51:24.358Z,68.87
2023-01-17T21:53:50.964Z,67.98
2023-01-17T21:56:35.820Z,68.29
2023-01-17T21:59:02.402Z,68.30
2023-01-17T22:01:30.081Z,67.29
2023-01-17T22:04:01.043Z,67.79
2023-01-17T22:06:29.160Z,68.01
2023-01-17T22:08:56.046Z,68.39
2023-01-17T22:11:23.825Z,68.66
2023-01-17T22:13:50.199Z,68.77
2023-01-17T22:16:17.754Z,68.81
2023-01-17T22:18:44.665Z,68.44
2023-01-17T22:21:12.929Z,68.27
2023-01-17T22:23:40.454Z,69.39
2023-01-17T22:26:08.900Z,69.12
2023-01-17T22:28:35.443Z,69.82
2023-01-17T22:31:08.974Z,68.83
2023-01-17T22:33:36.037Z,69.71
2023-01-17T22:36:02.329Z,69.75
2023-01-17T22:38:28.647Z,70.47
2023-01-17T22:41:01.099Z,69.61
2023-01-17T22:43:27.393Z,70.19
2023-01-17T22:45:58.680Z,70.30
2023-01-17T22:48:25.129Z,69.61
2023-01-17T22:50:56.344Z,69.87
2023-01-17T22:53:22.644Z,68.57
2023-01-17T22:55:49.160Z,69.50
2023-01-17T22:58:15.445Z,67.92
2023-01-17T23:00:41.747Z,69.14
2023-01-17T23:03:08.223Z,69.02
2023-01-17T23:05:34.568Z,68.51
2023-01-17T23:08:02.340Z,68.36
2023-01-17T23:10:47.505Z,67.52
2023-01-17T23:13:13.806Z,68.14
2023-01-17T23:15:58.494Z,67.86
2023-01-17T23:18:43.428Z,68.14
2023-01-17T23:21:09.760Z,67.67
2023-01-17T23:23:36.073Z,67.60
2023-01-17T23:26:02.401Z,68.53
2023-01-17T23:28:28.753Z,68.26
2023-01-17T23:31:00.084Z,68.05
2023-01-17T23:33:26.466Z,68.83
2023-01-17T23:35:53.283Z,68.72
2023-01-17T23:38:25.862Z,68.62
2023-01-17T23:41:11.426Z,68.70
2023-01-17T23:43:37.717Z,67.93
2023-01-17T23:46:05.046Z,67.34
2023-01-17T23:48:31.585Z,67.48
2023-01-17T23:50:59.098Z,68.37
2023-01-17T23:53:26.048Z,68.38
2023-01-17T23:55:53.380Z,69.07
2023-01-17T23:58:20.660Z,68.38
